Time;durP1;ratioP1;P1;durP2;ratioP2;P2;SDS_P1;SDS_P2;PMS_P1;PMS_P2;Temp;Humidity;BMP_temperature;BMP_pressure;BME280_temperature;BME280_humidity;BME280_pressure;Samples;Min_cycle;Max_cycle;Signal;HPM_P1;HPM_P2
2023/02/26 00:01:25;;;;;;;4.45;1.33;;;;;;;0.19;100.00;100446.34;4970328;28;20050;-64
2023/02/26 00:03:54;;;;;;;3.17;1.25;;;;;;;0.16;100.00;100444.66;4974485;28;20085;-65
2023/02/26 00:06:22;;;;;;;4.50;1.30;;;;;;;0.17;100.00;100451.53;4972838;28;20145;-64
2023/02/26 00:08:51;;;;;;;1.83;0.90;;;;;;;0.19;100.00;100456.69;4975834;28;20097;-63
2023/02/26 00:11:18;;;;;;;3.13;0.98;;;;;;;0.21;100.00;100458.38;4967642;28;20145;-62
2023/02/26 00:13:45;;;;;;;2.03;0.88;;;;;;;0.10;100.00;100465.50;4975001;28;20058;-63
2023/02/26 00:16:34;;;;;;;1.80;0.98;;;;;;;0.13;100.00;100470.59;4974494;28;20067;-63
2023/02/26 00:19:04;;;;;;;4.82;1.52;;;;;;;0.18;100.00;100473.09;4974097;28;20085;-64
2023/02/26 00:21:33;;;;;;;3.33;1.23;;;;;;;0.13;100.00;100472.31;4977038;28;20058;-64
2023/02/26 00:24:01;;;;;;;3.65;1.33;;;;;;;0.13;100.00;100477.50;4981278;28;20121;-64
2023/02/26 00:26:29;;;;;;;3.08;1.10;;;;;;;0.15;100.00;100481.78;4994384;28;20105;-64
2023/02/26 00:28:57;;;;;;;2.05;0.88;;;;;;;0.16;100.00;100487.81;5014689;28;20121;-64
2023/02/26 00:31:25;;;;;;;2.90;1.00;;;;;;;0.14;100.00;100489.59;4986499;28;20496;-64
2023/02/26 00:33:54;;;;;;;4.63;1.55;;;;;;;0.16;100.00;100496.44;4992548;28;20522;-64
2023/02/26 00:36:33;;;;;;;4.03;1.00;;;;;;;0.10;100.00;100495.69;4976843;28;20133;-64
2023/02/26 00:39:13;;;;;;;4.03;1.20;;;;;;;0.18;100.00;100498.97;4977084;28;20047;-63
2023/02/26 00:41:40;;;;;;;3.00;1.00;;;;;;;0.21;98.96;100509.28;4977020;28;20426;-64
2023/02/26 00:44:08;;;;;;;3.03;1.10;;;;;;;0.12;98.81;100514.63;4974696;28;20058;-65
2023/02/26 00:46:45;;;;;;;2.10;0.93;;;;;;;0.13;99.28;100519.78;4970628;28;20123;-64
2023/02/26 00:49:31;;;;;;;4.25;1.02;;;;;;;0.18;99.73;100511.91;4987088;28;20161;-64
2023/02/26 00:51:58;;;;;;;;;;;;;;;0.15;99.16;100515.44;4969710;28;20241;-65
2023/02/26 00:54:28;;;;;;;3.85;1.30;;;;;;;0.18;99.32;100519.69;4979065;28;19925;-64
2023/02/26 00:56:56;;;;;;;4.95;1.40;;;;;;;0.12;99.10;100517.22;4976012;28;20066;-64
2023/02/26 00:59:24;;;;;;;4.85;1.10;;;;;;;0.13;99.40;100524.94;4968077;28;20050;-64
2023/02/26 01:01:51;;;;;;;3.28;0.93;;;;;;;0.17;99.00;100529.19;4979090;28;20038;-65
2023/02/26 01:04:21;;;;;;;4.15;1.08;;;;;;;0.13;98.78;100527.53;4983483;28;20128;-63
2023/02/26 01:06:51;;;;;;;4.45;1.67;;;;;;;0.13;98.99;100534.44;4975993;28;20137;-63
2023/02/26 01:09:30;;;;;;;5.22;1.15;;;;;;;0.09;98.78;100536.25;4979846;28;20068;-65
2023/02/26 01:12:04;;;;;;;4.40;1.73;;;;;;;0.02;98.45;100531.22;4976299;28;20439;-65
2023/02/26 01:14:32;;;;;;;3.97;1.13;;;;;;;-0.01;98.70;100534.69;4982507;28;20154;-64
2023/02/26 01:17:24;;;;;;;5.22;1.20;;;;;;;0.04;98.28;100534.59;4976197;28;20142;-64
2023/02/26 01:20:04;;;;;;;5.38;1.73;;;;;;;0.03;98.09;100536.34;4974477;28;20129;-65
2023/02/26 01:22:51;;;;;;;4.35;1.48;;;;;;;0.02;98.27;100546.75;4995971;28;20144;-65
2023/02/26 01:25:24;;;;;;;2.00;1.08;;;;;;;-0.01;98.51;100547.63;4972079;28;20254;-65
2023/02/26 01:27:52;;;;;;;6.22;1.10;;;;;;;0.03;98.49;100545.84;4984179;28;20689;-64
2023/02/26 01:30:20;;;;;;;3.17;1.00;;;;;;;0.09;98.58;100545.72;4975871;28;20051;-64
2023/02/26 01:32:56;;;;;;;3.10;0.98;;;;;;;0.14;98.95;100543.94;4974619;28;20127;-63
2023/02/26 01:35:35;;;;;;;2.60;1.15;;;;;;;0.15;98.72;100551.69;4978426;28;20050;-65
2023/02/26 01:38:17;;;;;;;3.33;1.20;;;;;;;0.15;98.55;100553.41;4975324;28;20129;-65
2023/02/26 01:41:09;;;;;;;4.15;1.10;;;;;;;0.12;98.76;100553.47;4996480;28;20062;-64
2023/02/26 01:43:45;;;;;;;2.65;0.90;;;;;;;0.06;98.24;100557.00;4995803;28;20415;-65
2023/02/26 01:46:22;;;;;;;3.70;0.80;;;;;;;0.09;98.55;100556.97;4976203;28;20046;-64
2023/02/26 01:48:52;;;;;;;4.32;0.90;;;;;;;0.18;98.95;100561.09;4979254;28;20130;-65
2023/02/26 01:51:48;;;;;;;4.03;1.30;;;;;;;0.24;98.57;100567.03;4981622;28;20151;-66
2023/02/26 01:54:19;;;;;;;4.43;1.50;;;;;;;0.31;98.41;100566.94;4975967;28;20055;-65
2023/02/26 01:56:56;;;;;;;3.47;1.08;;;;;;;0.34;98.26;100565.16;4976546;28;20058;-62
2023/02/26 01:59:23;;;;;;;4.07;1.00;;;;;;;0.40;98.02;100575.38;4970513;28;20141;-63
2023/02/26 02:01:53;;;;;;;3.47;1.15;;;;;;;0.35;97.48;100573.75;4971905;28;20146;-67
2023/02/26 02:04:21;;;;;;;8.57;1.45;;;;;;;0.33;97.55;100578.13;4978383;28;20042;-65
2023/02/26 02:06:48;;;;;;;5.38;1.20;;;;;;;0.29;96.96;100584.25;4970822;28;20423;-64
2023/02/26 02:09:16;;;;;;;3.47;1.13;;;;;;;0.21;97.07;100581.78;4975527;28;20541;-61
2023/02/26 02:12:04;;;;;;;4.07;1.15;;;;;;;0.23;96.92;100582.63;4977283;28;20050;-65
2023/02/26 02:15:02;;;;;;;3.38;1.20;;;;;;;0.28;97.36;100587.72;4971337;28;20042;-65
2023/02/26 02:18:06;;;;;;;3.80;1.10;;;;;;;0.32;97.68;100594.56;4976987;28;20065;-65
2023/02/26 02:20:55;;;;;;;4.90;1.30;;;;;;;0.33;97.69;100597.09;4979245;28;20110;-66
2023/02/26 02:23:43;;;;;;;3.95;1.30;;;;;;;0.31;97.29;100605.75;4968547;28;20050;-63
2023/02/26 02:26:14;;;;;;;1.50;0.60;;;;;;;0.31;97.01;100609.22;4981305;28;20138;-65
2023/02/26 02:29:07;;;;;;;4.50;1.30;;;;;;;0.29;96.85;100620.50;4974870;28;20051;-62
2023/02/26 02:31:43;;;;;;;4.97;1.30;;;;;;;0.24;95.54;100618.81;4951817;28;20055;-65
2023/02/26 02:34:21;;;;;;;4.20;1.08;;;;;;;0.30;96.72;100617.00;4971856;28;20064;-65
2023/02/26 02:36:48;;;;;;;3.92;1.10;;;;;;;0.35;96.96;100621.22;4991649;28;20106;-65
2023/02/26 02:39:20;;;;;;;1.60;0.80;;;;;;;0.40;97.48;100623.72;4976421;28;20138;-64
2023/02/26 02:42:01;;;;;;;2.05;0.88;;;;;;;0.45;96.88;100627.97;4977499;28;20119;-64
2023/02/26 02:44:31;;;;;;;1.50;0.77;;;;;;;0.45;96.87;100634.88;4990681;28;20145;-63
2023/02/26 02:46:58;;;;;;;2.65;0.98;;;;;;;0.43;96.44;100639.22;4955161;28;20054;-64
2023/02/26 02:49:32;;;;;;;2.78;0.70;;;;;;;0.40;96.20;100628.91;4973594;28;20063;-64
2023/02/26 02:52:07;;;;;;;2.22;0.90;;;;;;;0.41;96.62;100643.59;4970121;28;20055;-64
2023/02/26 02:54:48;;;;;;;2.58;0.90;;;;;;;0.43;95.94;100647.00;4954889;28;20138;-64
2023/02/26 02:57:20;;;;;;;3.08;1.10;;;;;;;0.47;96.28;100644.34;4969012;28;20067;-64
2023/02/26 02:59:51;;;;;;;2.72;0.90;;;;;;;0.46;95.66;100646.97;4959657;28;20491;-64
2023/02/26 03:02:20;;;;;;;3.83;1.27;;;;;;;0.45;96.04;100651.28;4970478;28;20062;-64
2023/02/26 03:04:48;;;;;;;4.25;1.17;;;;;;;0.41;94.90;100657.41;4978010;28;20051;-64
2023/02/26 03:07:15;;;;;;;3.13;1.60;;;;;;;0.37;95.17;100660.06;4971631;28;20544;-62
2023/02/26 03:09:42;;;;;;;5.60;1.48;;;;;;;0.29;94.52;100662.78;4974127;28;20053;-63
2023/02/26 03:12:10;;;;;;;4.45;1.40;;;;;;;0.30;94.70;100659.28;4983486;28;20114;-64
2023/02/26 03:14:37;;;;;;;3.03;0.90;;;;;;;0.32;94.63;100654.97;4991509;28;20137;-64
2023/02/26 03:17:27;;;;;;;3.05;1.33;;;;;;;0.22;93.47;100669.75;4980436;28;20058;-64
2023/02/26 03:20:18;;;;;;;2.78;1.15;;;;;;;0.22;94.34;100667.16;4972073;28;20420;-65
2023/02/26 03:23:18;;;;;;;4.35;0.90;;;;;;;0.22;93.84;100674.09;4976116;28;20085;-63
2023/02/26 03:26:02;;;;;;;4.95;1.25;;;;;;;0.20;94.31;100684.47;4972775;28;20153;-65
2023/02/26 03:28:51;;;;;;;1.90;0.93;;;;;;;0.30;95.08;100685.19;4970663;28;20051;-64
2023/02/26 03:31:44;;;;;;;3.58;1.23;;;;;;;0.32;95.64;100685.19;4972305;28;20051;-63
2023/02/26 03:34:34;;;;;;;5.05;1.55;;;;;;;0.39;95.83;100690.22;4972653;28;20059;-64
2023/02/26 03:37:08;;;;;;;6.47;1.20;;;;;;;0.41;95.92;100696.25;4969292;28;20071;-64
2023/02/26 03:39:42;;;;;;;3.85;0.90;;;;;;;0.42;96.18;100703.13;4984047;28;20466;-64
2023/02/26 03:42:12;;;;;;;3.13;0.88;;;;;;;0.38;95.87;100709.22;4971929;28;20143;-64
2023/02/26 03:44:51;;;;;;;3.97;1.30;;;;;;;0.32;95.36;100713.66;4974473;28;20067;-64
2023/02/26 03:47:19;;;;;;;6.20;1.00;;;;;;;0.27;95.27;100721.50;4963849;28;20057;-64
2023/02/26 03:50:08;;;;;;;4.30;1.25;;;;;;;0.24;95.33;100717.22;4972446;28;20061;-64
2023/02/26 03:52:38;;;;;;;2.97;1.00;;;;;;;0.29;96.16;100724.91;4966635;28;20485;-63
2023/02/26 03:55:14;;;;;;;7.85;1.42;;;;;;;0.28;95.51;100732.72;4970672;28;20086;-64
2023/02/26 03:57:41;;;;;;;2.28;0.90;;;;;;;0.20;95.19;100735.41;4970048;28;20553;-64
2023/02/26 04:00:09;;;;;;;5.30;0.98;;;;;;;0.20;95.47;100738.84;4971913;28;20149;-65
2023/02/26 04:02:45;;;;;;;6.00;1.25;;;;;;;0.25;95.51;100742.22;4972598;28;20078;-64
2023/02/26 04:05:16;;;;;;;3.22;1.13;;;;;;;0.31;94.99;100749.03;4973422;28;20093;-64
2023/02/26 04:07:45;;;;;;;2.60;0.90;;;;;;;0.22;93.78;100751.75;4971930;28;20057;-64
2023/02/26 04:10:15;;;;;;;3.42;1.05;;;;;;;0.21;94.50;100752.63;4970942;28;20055;-65
2023/02/26 04:12:42;;;;;;;6.95;1.48;;;;;;;0.24;94.60;100763.81;4969134;28;20051;-66
2023/02/26 04:15:10;;;;;;;5.43;1.15;;;;;;;0.14;93.98;100757.06;4971591;28;20428;-63
2023/02/26 04:17:38;;;;;;;4.00;0.80;;;;;;;0.24;95.48;100765.56;4977022;28;20519;-64
2023/02/26 04:20:09;;;;;;;4.00;1.00;;;;;;;0.29;95.20;100762.91;4974167;28;20053;-64
2023/02/26 04:22:37;;;;;;;5.82;1.65;;;;;;;0.27;95.33;100765.53;4973448;28;20055;-62
2023/02/26 04:25:05;;;;;;;2.47;0.90;;;;;;;0.28;95.23;100775.00;4975370;28;20057;-63
2023/02/26 04:27:32;;;;;;;4.55;1.95;;;;;;;0.29;95.04;100778.44;4978342;28;20238;-63
2023/02/26 04:29:59;;;;;;;5.22;1.13;;;;;;;0.31;95.71;100774.94;4968871;28;20583;-63
2023/02/26 04:32:26;;;;;;;5.57;1.30;;;;;;;0.29;94.92;100776.69;4974679;28;20136;-65
2023/02/26 04:34:53;;;;;;;5.13;1.05;;;;;;;0.31;94.86;100782.69;4973061;28;20082;-64
2023/02/26 04:37:22;;;;;;;4.00;1.02;;;;;;;0.35;95.13;100789.53;4977446;28;20093;-63
2023/02/26 04:39:49;;;;;;;3.97;1.00;;;;;;;0.34;94.53;100789.56;4971247;28;20141;-64
2023/02/26 04:42:16;;;;;;;5.82;1.08;;;;;;;0.29;93.62;100796.56;4973822;28;20150;-64
2023/02/26 04:44:43;;;;;;;4.60;1.10;;;;;;;0.33;93.93;100793.06;4981223;28;20423;-64
2023/02/26 04:47:10;;;;;;;7.47;1.10;;;;;;;0.42;94.11;100804.13;4974873;28;20137;-65
2023/02/26 04:49:37;;;;;;;3.63;1.00;;;;;;;0.46;94.21;100803.22;4990065;28;20054;-61
2023/02/26 04:52:04;;;;;;;3.70;1.05;;;;;;;0.48;94.22;100801.44;4977247;28;20046;-63
2023/02/26 04:54:32;;;;;;;3.22;0.80;;;;;;;0.50;94.17;100812.66;4970000;28;20149;-63
2023/02/26 04:56:59;;;;;;;4.10;1.20;;;;;;;0.47;93.55;100823.03;4971256;28;20057;-63
2023/02/26 04:59:26;;;;;;;4.03;1.25;;;;;;;0.46;94.02;100823.94;4965461;28;20077;-66
2023/02/26 05:01:53;;;;;;;9.15;1.10;;;;;;;0.45;94.03;100827.41;4970099;28;20059;-64
2023/02/26 05:04:20;;;;;;;3.38;1.02;;;;;;;0.47;94.18;100827.38;4983317;28;20050;-64
2023/02/26 05:06:48;;;;;;;5.03;1.13;;;;;;;0.52;94.32;100832.47;4976582;28;20149;-64
2023/02/26 05:09:15;;;;;;;2.95;0.80;;;;;;;0.53;93.96;100829.88;4976625;28;20812;-63
2023/02/26 05:11:42;;;;;;;4.25;1.75;;;;;;;0.54;93.93;100838.50;4977633;28;20058;-64
2023/02/26 05:14:09;;;;;;;4.35;1.40;;;;;;;0.47;92.04;100837.72;4980621;28;20138;-63
2023/02/26 05:16:37;;;;;;;4.40;1.02;;;;;;;0.44;92.73;100843.78;4993720;28;20051;-64
2023/02/26 05:19:04;;;;;;;5.57;1.17;;;;;;;0.39;92.35;100844.75;4975694;28;20071;-66
2023/02/26 05:21:31;;;;;;;3.97;1.10;;;;;;;0.38;92.96;100849.06;4981735;28;20474;-64
2023/02/26 05:23:58;;;;;;;4.53;1.23;;;;;;;0.36;92.41;100855.13;4981152;28;20538;-65
2023/02/26 05:26:26;;;;;;;5.70;1.35;;;;;;;0.34;92.27;100855.16;4984446;28;20078;-65
2023/02/26 05:28:54;;;;;;;8.23;1.67;;;;;;;0.41;93.43;100855.97;4978337;28;20539;-63
2023/02/26 05:31:21;;;;;;;4.93;0.90;;;;;;;0.46;93.79;100865.38;4975905;28;20062;-64
2023/02/26 05:33:49;;;;;;;2.97;0.80;;;;;;;0.47;92.95;100864.50;4965021;28;20092;-66
2023/02/26 05:36:16;;;;;;;3.53;1.05;;;;;;;0.46;92.23;100867.97;4985636;28;20062;-62
2023/02/26 05:38:43;;;;;;;4.28;1.17;;;;;;;0.45;92.35;100871.44;4978503;28;20058;-64
2023/02/26 05:41:10;;;;;;;2.80;0.68;;;;;;;0.45;92.48;100871.44;4979708;28;20137;-63
2023/02/26 05:43:38;;;;;;;2.47;1.08;;;;;;;0.43;92.56;100873.16;4980373;28;20490;-67
2023/02/26 05:46:05;;;;;;;4.03;1.02;;;;;;;0.47;93.11;100886.94;4988683;28;20117;-64
2023/02/26 05:48:32;;;;;;;2.85;0.85;;;;;;;0.51;92.88;100886.03;4997663;28;20134;-65
2023/02/26 05:51:00;;;;;;;3.97;1.30;;;;;;;0.60;93.07;100890.22;4997774;28;20085;-65
2023/02/26 05:53:28;;;;;;;2.90;1.00;;;;;;;0.50;91.46;100892.09;4991015;28;20151;-61
2023/02/26 05:55:55;;;;;;;3.47;1.13;;;;;;;0.50;92.43;100894.69;4975056;28;20507;-64
2023/02/26 05:58:22;;;;;;;2.90;1.23;;;;;;;0.57;92.96;100898.03;4978156;28;20154;-64
2023/02/26 06:00:50;;;;;;;4.25;1.27;;;;;;;0.56;92.03;100899.78;4976972;28;20089;-64
2023/02/26 06:03:17;;;;;;;4.35;0.85;;;;;;;0.46;89.18;100906.81;4985376;28;20055;-64
2023/02/26 06:05:44;;;;;;;4.13;1.35;;;;;;;0.46;90.41;100904.22;4978130;28;20047;-65
2023/02/26 06:08:14;;;;;;;2.95;1.00;;;;;;;0.52;91.39;100900.69;4971304;28;20603;-64
2023/02/26 06:10:42;;;;;;;2.38;0.90;;;;;;;0.52;91.08;100905.00;4971081;28;20057;-65
2023/02/26 06:13:10;;;;;;;2.75;0.75;;;;;;;0.60;91.53;100910.97;4979434;28;20062;-64
2023/02/26 06:15:37;;;;;;;4.47;1.10;;;;;;;0.61;90.47;100923.03;4983197;28;20133;-63
2023/02/26 06:18:04;;;;;;;4.00;1.17;;;;;;;0.62;90.81;100925.59;4974018;28;20090;-63
2023/02/26 06:20:31;;;;;;;4.13;1.00;;;;;;;0.62;91.13;100932.50;4974258;28;20050;-64
2023/02/26 06:22:58;;;;;;;9.93;1.70;;;;;;;0.58;90.23;100938.59;4974556;28;20439;-62
2023/02/26 06:25:26;;;;;;;3.50;0.93;;;;;;;0.57;90.28;100937.75;4976819;28;20050;-65
2023/02/26 06:27:53;;;;;;;3.65;1.52;;;;;;;0.55;90.10;100936.06;4976261;28;20475;-63
2023/02/26 06:30:22;;;;;;;3.67;1.20;;;;;;;0.55;90.05;100949.88;4977245;28;20065;-64
2023/02/26 06:32:49;;;;;;;2.97;0.90;;;;;;;0.55;89.50;100954.19;4973543;28;20080;-64
2023/02/26 06:35:16;;;;;;;5.38;1.33;;;;;;;0.49;87.51;100955.97;4979752;28;20136;-64
2023/02/26 06:37:44;;;;;;;4.43;1.08;;;;;;;0.47;88.90;100962.91;4972557;28;20584;-62
2023/02/26 06:40:11;;;;;;;7.93;1.88;;;;;;;0.54;89.79;100961.13;4979836;28;20054;-64
2023/02/26 06:42:39;;;;;;;6.03;2.10;;;;;;;0.50;88.62;100959.44;4990278;28;20050;-63
2023/02/26 06:45:06;;;;;;;5.53;1.75;;;;;;;0.47;87.36;100964.66;4982750;28;20389;-63
2023/02/26 06:47:33;;;;;;;3.70;1.45;;;;;;;0.47;87.58;100967.25;4993403;28;20059;-64
2023/02/26 06:50:02;;;;;;;4.32;1.23;;;;;;;0.44;86.84;100968.13;4979774;28;20046;-64
2023/02/26 06:52:30;;;;;;;2.80;1.02;;;;;;;0.38;85.45;100975.97;4978328;28;20133;-63
2023/02/26 06:54:57;;;;;;;4.25;0.90;;;;;;;0.40;86.15;100981.13;4977692;28;20057;-63
2023/02/26 06:57:24;;;;;;;3.00;0.60;;;;;;;0.50;85.23;100990.53;4977885;28;20098;-63
2023/02/26 06:59:51;;;;;;;4.95;1.20;;;;;;;0.48;85.15;100993.13;4972261;28;20764;-63
2023/02/26 07:02:20;;;;;;;8.63;1.48;;;;;;;0.47;85.35;100998.31;4970954;28;20592;-62
2023/02/26 07:04:47;;;;;;;4.05;1.05;;;;;;;0.54;86.31;101006.88;4984227;28;20153;-65
2023/02/26 07:07:15;;;;;;;4.15;0.90;;;;;;;0.54;86.20;101005.16;4974111;28;20094;-64
2023/02/26 07:09:42;;;;;;;2.22;1.00;;;;;;;0.57;85.96;101012.88;4973394;28;20058;-65
2023/02/26 07:12:12;;;;;;;4.38;1.40;;;;;;;0.62;86.26;101018.84;4975055;28;20051;-63
2023/02/26 07:14:41;;;;;;;3.05;1.00;;;;;;;0.68;85.95;101018.81;4975927;28;20082;-65
2023/02/26 07:17:09;;;;;;;2.13;0.82;;;;;;;0.68;85.13;101031.75;4976094;28;20535;-66
2023/02/26 07:19:36;;;;;;;5.00;1.00;;;;;;;0.69;86.34;101030.03;4974754;28;20626;-64
2023/02/26 07:22:03;;;;;;;4.18;1.10;;;;;;;0.68;85.98;101033.50;4979240;28;20799;-63
2023/02/26 07:24:30;;;;;;;5.78;1.33;;;;;;;0.67;85.26;101045.56;4992511;28;20055;-63
2023/02/26 07:26:58;;;;;;;3.03;0.90;;;;;;;0.64;85.33;101050.81;4978902;28;20252;-64
2023/02/26 07:29:25;;;;;;;3.05;0.93;;;;;;;0.69;84.89;101050.75;4974088;28;20153;-63
2023/02/26 07:31:52;;;;;;;3.45;1.20;;;;;;;0.72;86.28;101053.28;4977419;28;20133;-63
2023/02/26 07:34:19;;;;;;;2.10;0.80;;;;;;;0.71;85.80;101062.78;4976129;28;20415;-63
2023/02/26 07:36:46;;;;;;;4.60;1.10;;;;;;;0.78;86.96;101073.97;4979086;28;20415;-63
2023/02/26 07:39:13;;;;;;;3.17;1.10;;;;;;;0.76;85.93;101079.16;4983867;28;20063;-61
2023/02/26 07:41:40;;;;;;;3.20;0.95;;;;;;;0.78;86.24;101080.88;4979247;28;20050;-64
2023/02/26 07:44:08;;;;;;;3.08;0.93;;;;;;;0.80;86.54;101077.38;4979937;28;20065;-65
2023/02/26 07:46:35;;;;;;;3.85;1.10;;;;;;;0.84;86.93;101083.41;4981371;28;20567;-64
2023/02/26 07:49:02;;;;;;;3.63;1.00;;;;;;;0.71;84.08;101083.53;4974361;28;20070;-64
2023/02/26 07:51:32;;;;;;;3.08;1.10;;;;;;;0.67;85.70;101089.63;4984496;28;20085;-64
2023/02/26 07:53:59;;;;;;;2.90;1.13;;;;;;;0.69;86.40;101094.81;4981238;28;20050;-65
2023/02/26 07:56:26;;;;;;;4.18;1.10;;;;;;;0.70;85.91;101093.91;4975576;28;20127;-63
2023/02/26 07:58:55;;;;;;;2.92;1.35;;;;;;;0.77;86.44;101095.59;4974684;28;20058;-64
2023/02/26 08:01:22;;;;;;;3.95;1.25;;;;;;;0.87;86.30;101092.00;4973165;28;20069;-63
2023/02/26 08:03:49;;;;;;;4.28;1.27;;;;;;;0.81;84.08;101104.16;4971384;28;20142;-63
2023/02/26 08:06:16;;;;;;;3.63;1.35;;;;;;;0.79;84.28;101104.19;4971647;28;20074;-64
2023/02/26 08:08:43;;;;;;;3.03;1.23;;;;;;;0.80;84.57;101107.63;4988043;28;20059;-63
2023/02/26 08:11:10;;;;;;;2.42;0.90;;;;;;;0.84;84.87;101104.97;4975207;28;20145;-63
2023/02/26 08:13:37;;;;;;;5.43;1.33;;;;;;;0.92;86.05;101110.09;4976591;28;20607;-64
2023/02/26 08:16:05;;;;;;;4.40;1.10;;;;;;;0.95;84.72;101117.84;4974554;28;20046;-63
2023/02/26 08:18:32;;;;;;;4.32;1.20;;;;;;;0.94;83.59;101123.88;4972284;28;20062;-63
2023/02/26 08:20:59;;;;;;;3.40;1.05;;;;;;;1.01;83.88;101130.72;4973396;28;20082;-64
2023/02/26 08:23:28;;;;;;;6.05;1.20;;;;;;;1.06;82.98;101125.47;4969486;28;20054;-64
2023/02/26 08:26:02;;;;;;;4.45;1.20;;;;;;;1.10;83.67;101135.81;4982157;28;20503;-64
2023/02/26 08:28:29;;;;;;;3.60;1.10;;;;;;;1.15;84.00;101138.34;4978201;28;20086;-65
2023/02/26 08:30:57;;;;;;;5.57;1.40;;;;;;;1.15;82.36;101133.16;4981426;28;20062;-64
2023/02/26 08:33:24;;;;;;;6.20;1.67;;;;;;;1.23;83.33;101133.91;4977115;28;20061;-62
2023/02/26 08:35:52;;;;;;;6.43;1.40;;;;;;;1.29;83.98;101139.03;4973123;28;20145;-62
2023/02/26 08:38:20;;;;;;;5.38;1.50;;;;;;;1.25;80.44;101147.72;4972933;28;20081;-62
2023/02/26 08:40:51;;;;;;;7.43;1.58;;;;;;;1.20;80.61;101152.09;4980313;28;20074;-63
2023/02/26 08:43:19;;;;;;;5.57;1.30;;;;;;;1.21;81.87;101151.22;4972462;28;20059;-64
2023/02/26 08:45:46;;;;;;;6.45;1.25;;;;;;;1.22;80.50;101151.22;4980376;28;20058;-64
2023/02/26 08:48:14;;;;;;;4.50;1.33;;;;;;;1.26;80.90;101158.09;4979626;28;20579;-64
2023/02/26 08:50:41;;;;;;;6.97;1.27;;;;;;;1.23;80.10;101160.72;4987147;28;20065;-66
2023/02/26 08:53:08;;;;;;;3.38;1.17;;;;;;;1.30;81.31;101166.66;4990546;28;20114;-62
2023/02/26 08:55:36;;;;;;;3.03;1.00;;;;;;;1.43;82.10;101167.38;4974231;28;20058;-64
2023/02/26 08:58:03;;;;;;;2.78;0.90;;;;;;;1.44;80.14;101172.56;4971641;28;20150;-63
2023/02/26 09:00:30;;;;;;;4.15;1.02;;;;;;;1.51;81.73;101179.38;4968602;28;20553;-64
2023/02/26 09:02:58;;;;;;;4.03;1.10;;;;;;;1.61;82.85;101181.84;4970582;28;20121;-66
2023/02/26 09:05:26;;;;;;;3.80;1.05;;;;;;;1.71;83.23;101179.13;4970598;28;20062;-65
2023/02/26 09:07:53;;;;;;;4.78;1.42;;;;;;;1.80;81.67;101183.31;5003845;22;20519;-80
2023/02/26 09:10:21;;;;;;;5.72;1.50;;;;;;;1.82;80.32;101188.50;5004597;28;20070;-79
2023/02/26 09:12:48;;;;;;;2.67;1.10;;;;;;;1.85;80.20;101194.53;5002340;28;20080;-81
2023/02/26 09:15:15;;;;;;;5.88;1.38;;;;;;;1.82;77.90;101199.75;4985242;28;20050;-80
2023/02/26 09:17:42;;;;;;;3.50;1.20;;;;;;;1.83;77.40;101198.84;4980713;28;20035;-81
2023/02/26 09:20:11;;;;;;;4.93;1.23;;;;;;;1.91;77.22;101198.75;4966291;28;20154;-81
2023/02/26 09:22:38;;;;;;;4.47;1.15;;;;;;;2.02;78.96;101202.91;4984191;28;20070;-82
2023/02/26 09:25:06;;;;;;;6.32;1.48;;;;;;;2.06;77.99;101202.88;4981848;28;20066;-81
2023/02/26 09:27:34;;;;;;;4.45;1.60;;;;;;;2.11;78.22;101201.06;4980718;28;20087;-82
2023/02/26 09:30:03;;;;;;;6.22;1.30;;;;;;;2.18;77.86;101213.09;4986337;28;20522;-79
2023/02/26 09:32:31;;;;;;;8.13;1.58;;;;;;;2.26;77.89;101212.09;4989363;28;20086;-80
2023/02/26 09:34:58;;;;;;;3.70;1.17;;;;;;;2.34;78.43;101222.34;4995928;28;20054;-82
2023/02/26 09:37:26;;;;;;;3.70;0.90;;;;;;;2.35;76.28;101226.69;4993121;28;20046;-81
2023/02/26 09:39:53;;;;;;;4.50;1.00;;;;;;;2.37;76.84;101229.25;4979318;28;20086;-81
2023/02/26 09:42:26;;;;;;;3.53;1.20;;;;;;;2.37;76.71;101240.50;4977778;28;20054;-81
2023/02/26 09:44:58;;;;;;;4.40;1.52;;;;;;;2.29;74.76;101245.78;4970524;28;20058;-81
2023/02/26 09:47:38;;;;;;;2.55;0.82;;;;;;;2.43;78.83;101242.13;4941768;28;20047;-80
2023/02/26 09:50:14;;;;;;;6.38;1.65;;;;;;;2.42;75.28;101243.03;4959292;28;20065;-81
2023/02/26 09:52:53;;;;;;;3.42;1.10;;;;;;;2.49;76.54;101250.72;4972758;28;20081;-81
2023/02/26 09:55:33;;;;;;;4.40;0.95;;;;;;;2.52;75.39;101250.66;4991920;28;20472;-81
2023/02/26 09:58:03;;;;;;;4.47;1.15;;;;;;;2.62;76.39;101255.72;4993929;28;20144;-81
2023/02/26 10:00:43;;;;;;;5.70;1.35;;;;;;;2.64;73.73;101253.94;4955718;28;20065;-80
2023/02/26 10:03:26;;;;;;;3.25;1.05;;;;;;;2.68;76.22;101253.00;4954301;28;20066;-80
2023/02/26 10:06:11;;;;;;;2.92;0.90;;;;;;;2.73;74.02;101259.00;4975309;28;20082;-81
2023/02/26 10:09:04;;;;;;;2.10;0.80;;;;;;;2.75;75.68;101258.09;4977499;28;20054;-80
2023/02/26 10:11:40;;;;;;;6.03;1.10;;;;;;;2.74;74.23;101271.94;4956623;28;20059;-81
2023/02/26 10:14:19;;;;;;;3.90;0.90;;;;;;;2.73;74.10;101278.03;4979766;28;20138;-80
2023/02/26 10:16:52;;;;;;;3.47;1.00;;;;;;;2.76;75.50;101272.81;4994087;28;20114;-81
2023/02/26 10:19:24;;;;;;;3.42;0.95;;;;;;;2.78;75.55;101281.41;4976516;28;20086;-81
2023/02/26 10:22:13;;;;;;;3.47;1.02;;;;;;;2.85;77.40;101273.53;4956301;28;20105;-82
2023/02/26 10:25:01;;;;;;;3.70;0.95;;;;;;;2.84;75.88;101279.59;4976287;28;20070;-80
2023/02/26 10:28:06;;;;;;;3.97;0.90;;;;;;;2.78;73.71;101284.03;4961152;28;20102;-80
2023/02/26 10:30:33;;;;;;;2.95;1.38;;;;;;;2.83;73.97;101280.50;4993606;28;20055;-81
2023/02/26 10:33:12;;;;;;;2.70;0.90;;;;;;;2.86;74.49;101288.25;4999650;28;20034;-81
2023/02/26 10:36:23;;;;;;;3.50;1.35;;;;;;;2.75;71.96;101294.50;4978655;28;20062;-80
2023/02/26 10:38:55;;;;;;;3.60;0.95;;;;;;;2.71;72.30;101290.22;4974778;28;20059;-80
2023/02/26 10:41:26;;;;;;;2.95;1.15;;;;;;;2.76;72.80;101292.75;4966041;28;20139;-80
2023/02/26 10:44:23;;;;;;;3.00;0.90;;;;;;;2.83;74.35;101298.69;4977297;28;20117;-79
2023/02/26 10:47:04;;;;;;;4.93;1.27;;;;;;;2.91;75.14;101310.69;4977574;28;20061;-80
2023/02/26 10:49:51;;;;;;;3.38;1.02;;;;;;;2.85;68.64;101296.94;4981263;28;20416;-79
2023/02/26 10:52:23;;;;;;;1.48;0.80;;;;;;;2.89;73.09;101312.47;4958986;28;20047;-80
2023/02/26 10:55:14;;;;;;;6.57;1.15;;;;;;;3.03;73.42;101314.84;4976024;28;20074;-80
2023/02/26 10:57:46;;;;;;;3.17;1.15;;;;;;;3.16;69.71;101313.75;4978573;28;20051;-78
2023/02/26 11:00:17;;;;;;;3.22;1.10;;;;;;;3.38;72.51;101318.53;4970948;28;20055;-80
2023/02/26 11:02:50;;;;;;;3.20;0.80;;;;;;;3.50;70.32;101319.19;4963301;28;20077;-80
2023/02/26 11:05:25;;;;;;;5.40;1.40;;;;;;;3.58;68.13;101315.59;4973553;28;20042;-79
2023/02/26 11:08:13;;;;;;;1.90;0.70;;;;;;;3.65;69.70;101325.88;4957864;28;20067;-82
2023/02/26 11:10:46;;;;;;;3.67;1.02;;;;;;;3.68;65.98;101325.78;4972896;28;20462;-79
2023/02/26 11:13:14;;;;;;;3.53;1.35;;;;;;;3.72;68.98;101322.25;4974376;28;20039;-80
2023/02/26 11:15:41;;;;;;;3.58;0.90;;;;;;;3.64;63.90;101324.13;4975976;28;20093;-80
2023/02/26 11:18:13;;;;;;;4.78;1.05;;;;;;;3.79;66.61;101329.06;4959196;28;20463;-81
2023/02/26 11:20:41;;;;;;;3.03;0.88;;;;;;;3.97;63.94;101322.63;4978562;28;20142;-81
2023/02/26 11:23:16;;;;;;;2.08;0.80;;;;;;;3.96;62.28;101335.66;4981563;28;20132;-81
2023/02/26 11:25:44;;;;;;;2.20;0.93;;;;;;;4.02;65.45;101346.84;4968006;28;20490;-80
2023/02/26 11:28:22;;;;;;;4.10;0.90;;;;;;;3.99;63.83;101341.69;4967223;28;20508;-80
2023/02/26 11:30:52;;;;;;;1.75;0.90;;;;;;;3.95;57.23;101344.38;4973204;28;20089;-77
2023/02/26 11:33:28;;;;;;;3.47;1.25;;;;;;;4.02;61.27;101346.84;4993376;28;20051;-81
2023/02/26 11:35:59;;;;;;;2.97;0.80;;;;;;;4.36;62.02;101334.84;4978453;28;20073;-79
2023/02/26 11:38:27;;;;;;;2.45;0.70;;;;;;;4.77;62.46;101342.59;4940129;28;20055;-80
2023/02/26 11:41:19;;;;;;;3.63;0.70;;;;;;;4.98;60.22;101341.22;4973488;28;20049;-81
2023/02/26 11:44:00;;;;;;;2.40;0.85;;;;;;;5.15;60.04;101353.00;4967320;28;20146;-81
2023/02/26 11:46:27;;;;;;;3.95;1.10;;;;;;;4.93;56.84;101357.88;4969807;28;20046;-81
2023/02/26 11:48:57;;;;;;;3.58;0.88;;;;;;;4.80;59.43;101357.31;4982157;28;20086;-81
2023/02/26 11:51:26;;;;;;;3.78;1.00;;;;;;;4.72;60.55;101361.84;4982877;28;20154;-80
2023/02/26 11:54:01;;;;;;;1.83;0.65;;;;;;;4.54;58.06;101361.34;4985645;28;20089;-80
2023/02/26 11:56:42;;;;;;;2.85;0.88;;;;;;;4.66;60.23;101359.38;4942329;28;20530;-81